createdAt,value
2023-02-25T00:01:06.664Z,43.40
2023-02-25T00:06:13.879Z,43.50
2023-02-25T00:11:19.085Z,43.70
2023-02-25T00:16:23.743Z,43.70
2023-02-25T00:21:29.620Z,43.50
2023-02-25T00:26:32.731Z,43.40
2023-02-25T00:31:36.048Z,43.30
2023-02-25T00:36:40.993Z,43.40
2023-02-25T00:41:44.174Z,43.60
2023-02-25T00:46:47.289Z,43.60
2023-02-25T00:51:51.796Z,43.60
2023-02-25T00:56:55.383Z,43.60
2023-02-25T01:01:58.594Z,43.60
2023-02-25T01:07:03.827Z,43.60
2023-02-25T01:12:07.691Z,43.70
2023-02-25T01:17:10.766Z,43.80
2023-02-25T01:22:15.215Z,43.50
2023-02-25T01:27:18.287Z,43.60
2023-02-25T01:32:21.577Z,43.50
2023-02-25T01:37:26.103Z,43.40
2023-02-25T01:42:29.219Z,43.50
2023-02-25T01:47:36.170Z,43.40
2023-02-25T01:52:42.685Z,43.20
2023-02-25T01:57:45.781Z,43.30
2023-02-25T02:02:50.540Z,43.30
2023-02-25T02:07:55.223Z,43.30
2023-02-25T02:12:58.595Z,43.20
2023-02-25T02:18:04.111Z,43.30
2023-02-25T02:23:46.139Z,43.20
2023-02-25T02:29:28.358Z,43.50
2023-02-25T02:34:42.894Z,43.40
2023-02-25T02:39:54.409Z,43.40
2023-02-25T02:45:02.291Z,43.50
2023-02-25T02:50:11.068Z,43.40
2023-02-25T02:55:22.487Z,43.50
2023-02-25T03:00:31.808Z,43.60
2023-02-25T03:05:38.139Z,43.80
2023-02-25T03:10:41.598Z,43.70
2023-02-25T03:15:45.886Z,43.50
2023-02-25T03:20:51.835Z,44.20
2023-02-25T03:26:00.775Z,43.50
2023-02-25T03:31:09.377Z,43.70
2023-02-25T03:36:18.141Z,43.80
2023-02-25T03:41:26.297Z,43.70
2023-02-25T03:46:30.507Z,43.70
2023-02-25T03:51:36.940Z,43.40
2023-02-25T03:56:45.549Z,43.40
2023-02-25T04:01:51.850Z,43.20
2023-02-25T04:06:56.434Z,43.10
2023-02-25T04:11:59.514Z,43.10
2023-02-25T04:17:04.699Z,43.00
2023-02-25T04:22:09.228Z,43.00
2023-02-25T04:27:15.610Z,42.90
2023-02-25T04:32:18.856Z,42.90
2023-02-25T04:37:23.395Z,42.70
2023-02-25T04:42:26.592Z,42.10
2023-02-25T04:47:29.650Z,42.30
2023-02-25T04:52:34.071Z,42.00
2023-02-25T04:57:42.725Z,41.20
2023-02-25T05:02:46.160Z,41.40
2023-02-25T05:07:50.611Z,41.80
2023-02-25T05:12:53.693Z,41.70
2023-02-25T05:17:56.961Z,41.90
2023-02-25T05:23:01.409Z,41.80
2023-02-25T05:28:06.491Z,41.50
2023-02-25T05:33:10.491Z,41.50
2023-02-25T05:38:14.934Z,41.80
2023-02-25T05:43:18.075Z,41.70
2023-02-25T05:48:21.164Z,41.70
2023-02-25T05:53:25.647Z,41.50
2023-02-25T05:58:28.717Z,41.50
2023-02-25T06:03:31.827Z,41.60
2023-02-25T06:08:36.351Z,41.50
2023-02-25T06:13:39.424Z,41.60
2023-02-25T06:18:42.532Z,41.80
2023-02-25T06:23:47.031Z,41.80
2023-02-25T06:28:50.120Z,41.90
2023-02-25T06:33:54.985Z,41.90
2023-02-25T06:38:59.666Z,41.90
2023-02-25T06:44:04.282Z,42.70
2023-02-25T06:49:07.365Z,42.20
2023-02-25T06:54:12.069Z,42.10
2023-02-25T06:59:15.172Z,42.10
2023-02-25T07:04:19.870Z,42.00
2023-02-25T07:09:24.453Z,42.00
2023-02-25T07:14:27.788Z,42.10
2023-02-25T07:19:30.945Z,41.80
2023-02-25T07:24:35.523Z,41.80
2023-02-25T07:29:38.599Z,41.60
2023-02-25T07:34:41.736Z,41.80
2023-02-25T07:39:47.710Z,41.80
2023-02-25T07:44:51.954Z,41.60
2023-02-25T07:49:55.057Z,41.60
2023-02-25T07:54:59.516Z,41.60
2023-02-25T08:00:02.679Z,41.20
2023-02-25T08:05:07.181Z,41.40
2023-02-25T08:10:13.689Z,41.60
2023-02-25T08:15:17.261Z,41.30
2023-02-25T08:20:20.709Z,41.60
2023-02-25T08:25:25.128Z,41.70
2023-02-25T08:30:28.482Z,42.30
2023-02-25T08:35:31.971Z,41.90
2023-02-25T08:40:36.457Z,42.10
2023-02-25T08:45:41.770Z,41.70
2023-02-25T08:50:44.870Z,42.10
2023-02-25T08:55:49.488Z,41.80
2023-02-25T09:00:55.240Z,41.10
2023-02-25T09:05:58.499Z,40.20
2023-02-25T09:11:06.972Z,39.30
2023-02-25T09:16:10.334Z,39.10
2023-02-25T09:21:14.592Z,39.30
2023-02-25T09:26:19.410Z,39.50
2023-02-25T09:31:23.056Z,38.80
2023-02-25T09:36:26.397Z,38.80
2023-02-25T09:41:36.462Z,38.50
2023-02-25T09:46:46.540Z,36.50
2023-02-25T09:51:56.663Z,37.20
2023-02-25T09:57:04.089Z,37.20
2023-02-25T10:02:22.124Z,36.10
2023-02-25T10:07:33.722Z,35.40
2023-02-25T10:12:47.203Z,35.00
2023-02-25T10:18:12.565Z,33.90
2023-02-25T10:23:29.097Z,34.70
2023-02-25T10:28:34.546Z,33.90
2023-02-25T10:33:40.342Z,34.90
2023-02-25T10:38:46.381Z,35.30
2023-02-25T10:43:52.468Z,35.20
2023-02-25T10:48:59.028Z,36.00
2023-02-25T10:54:06.479Z,35.30
2023-02-25T10:59:27.694Z,36.80
2023-02-25T11:04:36.189Z,34.70
2023-02-25T11:09:40.125Z,35.80
2023-02-25T11:14:44.660Z,36.20
2023-02-25T11:19:51.283Z,35.90
2023-02-25T11:24:59.585Z,36.20
2023-02-25T11:30:16.583Z,36.00
2023-02-25T11:35:25.275Z,35.10
2023-02-25T11:40:30.254Z,35.30
2023-02-25T11:45:36.610Z,35.30
2023-02-25T11:50:48.654Z,35.80
2023-02-25T11:56:03.982Z,35.00
2023-02-25T12:01:18.896Z,34.00
2023-02-25T12:06:37.528Z,34.70
2023-02-25T12:12:10.803Z,33.70
2023-02-25T12:17:53.484Z,34.00
2023-02-25T12:23:29.828Z,34.50
2023-02-25T12:28:51.611Z,33.60
2023-02-25T12:34:16.301Z,34.40
2023-02-25T12:39:44.309Z,33.90
2023-02-25T12:45:02.712Z,34.40
2023-02-25T12:50:35.715Z,34.80
2023-02-25T12:55:53.779Z,34.80
2023-02-25T13:01:18.946Z,34.50
2023-02-25T13:07:01.382Z,33.80
2023-02-25T13:12:24.454Z,33.80
2023-02-25T13:17:37.570Z,34.40
2023-02-25T13:22:54.209Z,34.00
2023-02-25T13:28:23.238Z,33.80
2023-02-25T13:33:40.248Z,33.10
2023-02-25T13:39:02.770Z,33.60
2023-02-25T13:44:29.027Z,32.50
2023-02-25T13:50:11.862Z,33.10
2023-02-25T13:55:30.175Z,34.00
2023-02-25T14:00:54.509Z,33.50
2023-02-25T14:06:09.340Z,32.40
2023-02-25T14:11:28.939Z,32.30
2023-02-25T14:16:51.110Z,33.60
2023-02-25T14:22:20.240Z,33.80
2023-02-25T14:27:34.876Z,34.30
2023-02-25T14:33:02.557Z,32.50
2023-02-25T14:38:09.977Z,32.70
2023-02-25T14:43:34.867Z,33.60
2023-02-25T14:48:44.899Z,33.00
2023-02-25T14:54:12.399Z,33.40
2023-02-25T14:59:57.119Z,33.80
2023-02-25T15:05:39.556Z,33.60
2023-02-25T15:11:04.544Z,34.00
2023-02-25T15:16:41.309Z,33.80
2023-02-25T15:21:48.426Z,33.10
2023-02-25T15:26:52.089Z,34.60
2023-02-25T15:32:16.864Z,35.10
2023-02-25T15:37:37.717Z,34.10
2023-02-25T15:42:49.548Z,34.00
2023-02-25T15:48:29.493Z,35.40
2023-02-25T15:53:43.006Z,36.30
2023-02-25T15:58:52.630Z,36.60
2023-02-25T16:03:56.209Z,37.00
2023-02-25T16:09:09.500Z,36.90
2023-02-25T16:14:18.457Z,37.90
2023-02-25T16:19:25.611Z,38.00
2023-02-25T16:24:30.809Z,37.80
2023-02-25T16:29:45.824Z,38.00
2023-02-25T16:34:57.308Z,38.40
2023-02-25T16:40:02.742Z,38.30
2023-02-25T16:45:08.106Z,38.30
2023-02-25T16:50:16.043Z,38.20
2023-02-25T16:55:23.913Z,38.30
2023-02-25T17:00:27.102Z,38.30
2023-02-25T17:05:33.582Z,38.20
2023-02-25T17:10:47.708Z,38.60
2023-02-25T17:15:51.522Z,38.60
2023-02-25T17:21:02.177Z,37.90
2023-02-25T17:26:07.346Z,38.50
2023-02-25T17:31:13.537Z,38.20
2023-02-25T17:36:19.000Z,38.40
2023-02-25T17:41:24.941Z,38.60
2023-02-25T17:46:36.132Z,38.80
2023-02-25T17:51:39.836Z,38.80
2023-02-25T17:56:44.440Z,38.60
2023-02-25T18:01:49.793Z,38.50
2023-02-25T18:06:55.392Z,38.60
2023-02-25T18:12:01.486Z,38.70
2023-02-25T18:17:14.389Z,39.00
2023-02-25T18:22:31.775Z,39.50
2023-02-25T18:27:37.870Z,39.90
2023-02-25T18:32:41.217Z,39.40
2023-02-25T18:37:46.167Z,39.20
2023-02-25T18:42:50.658Z,39.40
2023-02-25T18:47:56.649Z,39.70
2023-02-25T18:53:00.826Z,39.70
2023-02-25T18:58:05.973Z,39.70
2023-02-25T19:03:11.444Z,39.70
2023-02-25T19:08:15.890Z,39.70
2023-02-25T19:13:24.763Z,39.80
2023-02-25T19:18:30.047Z,40.10
2023-02-25T19:23:33.128Z,39.80
2023-02-25T19:28:37.623Z,39.90
2023-02-25T19:33:40.871Z,40.00
2023-02-25T19:38:43.938Z,40.00
2023-02-25T19:43:48.419Z,40.00
2023-02-25T19:48:51.498Z,39.90
2023-02-25T19:53:54.579Z,39.80
2023-02-25T19:58:59.444Z,39.80
2023-02-25T20:04:02.681Z,40.10
2023-02-25T20:09:07.663Z,40.00
2023-02-25T20:14:13.855Z,40.00
2023-02-25T20:19:17.531Z,40.20
2023-02-25T20:24:20.657Z,40.10
2023-02-25T20:29:25.754Z,40.30
2023-02-25T20:34:29.422Z,40.70
2023-02-25T20:39:44.080Z,40.80
2023-02-25T20:44:51.324Z,41.30
2023-02-25T20:49:59.238Z,40.70
2023-02-25T20:55:02.370Z,40.40
2023-02-25T21:00:09.170Z,39.90
2023-02-25T21:05:12.309Z,40.00
2023-02-25T21:10:15.412Z,39.80
2023-02-25T21:15:20.163Z,39.70
2023-02-25T21:20:23.294Z,39.70
2023-02-25T21:25:26.426Z,39.60
2023-02-25T21:30:31.023Z,39.70
2023-02-25T21:35:34.180Z,39.60
2023-02-25T21:40:37.267Z,39.50
2023-02-25T21:45:41.889Z,39.50
2023-02-25T21:50:47.192Z,39.60
2023-02-25T21:55:50.673Z,39.70
2023-02-25T22:00:55.134Z,39.70
2023-02-25T22:05:58.388Z,39.60
2023-02-25T22:11:01.577Z,39.10
2023-02-25T22:16:06.532Z,39.00
2023-02-25T22:21:12.535Z,39.10
2023-02-25T22:26:18.007Z,39.20
2023-02-25T22:31:23.374Z,39.10
2023-02-25T22:36:27.132Z,39.30
2023-02-25T22:41:30.981Z,39.40
2023-02-25T22:46:37.149Z,39.60
2023-02-25T22:51:42.732Z,39.70
2023-02-25T22:56:47.016Z,39.60
2023-02-25T23:01:51.590Z,39.50
2023-02-25T23:06:55.765Z,39.60
2023-02-25T23:11:59.949Z,39.60
2023-02-25T23:17:04.570Z,39.60
2023-02-25T23:22:07.821Z,39.80
2023-02-25T23:27:10.892Z,39.80
2023-02-25T23:32:15.534Z,40.00
2023-02-25T23:37:18.621Z,40.10
2023-02-25T23:42:21.692Z,40.00
2023-02-25T23:47:26.190Z,40.80
2023-02-25T23:52:29.699Z,40.30
2023-02-25T23:57:33.400Z,40.50
